Time;durP1;ratioP1;P1;durP2;ratioP2;P2;SDS_P1;SDS_P2;PMS_P1;PMS_P2;Temp;Humidity;BMP_temperature;BMP_pressure;BME280_temperature;BME280_humidity;BME280_pressure;Samples;Min_cycle;Max_cycle;Signal;HPM_P1;HPM_P2
2021/06/27 00:04:53;;;;;;;9.43;8.60;;;20.10;99.90;;;;;;10541651;28;20243;-81
2021/06/27 00:09:55;;;;;;;8.80;8.20;;;20.10;99.90;;;;;;10533509;28;20755;-80
2021/06/27 00:14:58;;;;;;;8.70;7.97;;;20.10;99.90;;;;;;10537404;28;20284;-80
2021/06/27 00:20:00;;;;;;;11.70;10.70;;;20.00;99.90;;;;;;10523773;28;20203;-81
2021/06/27 00:25:03;;;;;;;9.13;8.43;;;19.90;99.90;;;;;;10543041;28;20282;-81
2021/06/27 00:30:09;;;;;;;8.80;8.10;;;19.80;99.90;;;;;;10541515;28;20207;-80
2021/06/27 00:35:13;;;;;;;8.80;8.10;;;19.80;99.90;;;;;;10524446;28;20259;-80
2021/06/27 00:40:18;;;;;;;10.57;9.57;;;19.80;99.90;;;;;;10543252;28;20208;-80
2021/06/27 00:45:23;;;;;;;9.00;8.30;;;19.70;99.90;;;;;;10529646;28;20749;-79
2021/06/27 00:50:27;;;;;;;10.37;9.47;;;19.70;99.90;;;;;;10536335;28;20722;-80
2021/06/27 00:55:29;;;;;;;10.40;9.60;;;19.70;99.90;;;;;;10536762;28;20281;-79
2021/06/27 01:00:35;;;;;;;9.60;8.80;;;19.60;99.90;;;;;;10526988;28;20738;-80
2021/06/27 01:05:39;;;;;;;8.77;8.00;;;19.60;99.90;;;;;;10517577;28;20302;-79
2021/06/27 01:10:42;;;;;;;10.20;9.40;;;19.60;99.90;;;;;;10535917;28;20214;-80
2021/06/27 01:15:45;;;;;;;9.80;9.00;;;19.50;99.90;;;;;;10517560;28;20281;-79
2021/06/27 01:20:48;;;;;;;9.33;8.63;;;19.50;99.90;;;;;;10536682;28;20200;-80
2021/06/27 01:25:54;;;;;;;8.90;8.10;;;19.50;99.90;;;;;;10509201;28;20220;-79
2021/06/27 01:30:57;;;;;;;8.87;8.17;;;19.40;99.90;;;;;;10509820;28;20262;-79
2021/06/27 01:35:59;;;;;;;8.70;8.00;;;19.40;99.90;;;;;;10525551;28;20250;-81
2021/06/27 01:41:03;;;;;;;8.53;7.73;;;19.40;99.90;;;;;;10527109;28;20261;-80
2021/06/27 01:46:05;;;;;;;7.23;6.63;;;19.40;99.90;;;;;;10541455;28;20496;-80
2021/06/27 01:51:08;;;;;;;8.00;7.40;;;19.50;99.90;;;;;;10547610;28;20247;-80
2021/06/27 01:56:11;;;;;;;7.73;7.13;;;19.50;99.90;;;;;;10527038;28;20287;-79
2021/06/27 02:01:17;;;;;;;8.13;7.53;;;19.40;99.90;;;;;;10546159;28;20585;-80
2021/06/27 02:06:20;;;;;;;7.53;6.70;;;19.30;99.90;;;;;;10545806;28;20302;-80
2021/06/27 02:11:25;;;;;;;6.63;6.03;;;19.30;99.90;;;;;;10528971;28;20215;-80
2021/06/27 02:16:27;;;;;;;8.43;6.80;;;19.30;99.90;;;;;;10526561;28;20729;-80
2021/06/27 02:21:32;;;;;;;7.43;6.83;;;19.30;99.90;;;;;;10528704;28;20281;-80
2021/06/27 02:26:36;;;;;;;8.60;7.70;;;19.20;99.90;;;;;;10546823;28;20311;-80
2021/06/27 02:31:38;;;;;;;8.33;7.67;;;19.20;99.90;;;;;;10547327;28;20621;-80
2021/06/27 02:36:40;;;;;;;5.90;5.50;;;19.20;99.90;;;;;;10559869;28;20307;-79
2021/06/27 02:41:44;;;;;;;7.90;7.30;;;19.20;99.90;;;;;;10544693;28;20211;-81
2021/06/27 02:46:46;;;;;;;6.90;6.30;;;19.20;99.90;;;;;;10523176;28;20243;-80
2021/06/27 02:51:48;;;;;;;6.97;6.37;;;19.10;99.90;;;;;;10546293;28;20204;-80
2021/06/27 02:56:52;;;;;;;6.40;5.90;;;19.00;99.90;;;;;;10528813;28;20699;-79
2021/06/27 03:01:54;;;;;;;5.50;5.10;;;19.00;99.90;;;;;;10545199;28;20703;-81
2021/06/27 03:06:56;;;;;;;6.33;5.90;;;18.90;99.90;;;;;;10526791;28;20212;-80
2021/06/27 03:11:59;;;;;;;5.83;5.43;;;18.90;99.90;;;;;;10527396;28;20575;-80
2021/06/27 03:17:01;;;;;;;6.37;5.43;;;18.90;99.90;;;;;;10540899;28;20234;-81
2021/06/27 03:22:04;;;;;;;5.97;5.57;;;18.90;99.90;;;;;;10556906;28;20691;-79
2021/06/27 03:27:08;;;;;;;5.57;5.17;;;18.90;99.90;;;;;;10540035;28;20215;-79
2021/06/27 03:32:10;;;;;;;5.53;5.13;;;18.90;99.90;;;;;;10543242;28;20200;-81
2021/06/27 03:37:12;;;;;;;5.93;5.53;;;18.90;99.90;;;;;;10525879;28;20672;-81
2021/06/27 03:42:15;;;;;;;6.87;6.37;;;18.90;99.90;;;;;;10521886;28;20273;-81
2021/06/27 03:47:17;;;;;;;6.13;5.63;;;19.00;99.90;;;;;;10538581;28;20204;-81
2021/06/27 03:52:20;;;;;;;4.70;4.40;;;19.00;99.90;;;;;;10541110;28;20223;-80
2021/06/27 03:57:23;;;;;;;6.10;5.60;;;19.10;99.90;;;;;;10541799;28;20227;-80
2021/06/27 04:02:25;;;;;;;7.10;6.60;;;19.10;99.90;;;;;;10540556;28;20228;-80
2021/06/27 04:07:28;;;;;;;6.83;6.33;;;19.10;99.90;;;;;;10540910;28;20236;-79
2021/06/27 04:12:31;;;;;;;9.10;6.63;;;19.20;99.90;;;;;;10502974;28;20596;-79
2021/06/27 04:17:33;;;;;;;7.63;6.83;;;19.30;99.90;;;;;;10539505;28;20587;-80
2021/06/27 04:22:35;;;;;;;9.50;8.73;;;19.40;99.90;;;;;;10541666;28;20253;-80
2021/06/27 04:27:39;;;;;;;8.83;8.23;;;19.50;99.90;;;;;;10521718;28;20257;-81
2021/06/27 04:32:41;;;;;;;8.30;7.70;;;19.60;99.90;;;;;;10515659;28;20259;-80
2021/06/27 04:37:43;;;;;;;9.43;8.43;;;19.70;99.90;;;;;;10522720;28;20642;-80
2021/06/27 04:42:47;;;;;;;8.10;7.50;;;19.80;99.90;;;;;;10540214;28;20684;-80
2021/06/27 04:47:49;;;;;;;8.07;7.37;;;19.80;99.90;;;;;;10534351;28;20242;-81
2021/06/27 04:52:52;;;;;;;8.60;8.00;;;19.90;99.90;;;;;;10505823;28;20275;-80
2021/06/27 04:57:56;;;;;;;8.37;7.63;;;20.00;99.90;;;;;;10522805;28;20239;-81
2021/06/27 05:03:00;;;;;;;8.33;7.63;;;20.10;99.90;;;;;;10549402;28;20234;-81
2021/06/27 05:08:02;;;;;;;7.00;6.50;;;20.20;99.90;;;;;;10516877;28;20617;-81
2021/06/27 05:13:05;;;;;;;7.17;6.53;;;20.30;99.90;;;;;;10560387;28;20243;-81
2021/06/27 05:18:08;;;;;;;9.00;8.20;;;20.40;99.90;;;;;;10526544;28;20602;-80
2021/06/27 05:23:10;;;;;;;7.23;6.70;;;20.40;99.90;;;;;;10529677;28;20695;-80
2021/06/27 05:28:13;;;;;;;7.93;7.23;;;20.50;99.90;;;;;;10547088;28;20208;-80
2021/06/27 05:33:15;;;;;;;7.90;7.30;;;20.50;99.90;;;;;;10533402;28;20250;-80
2021/06/27 05:38:17;;;;;;;7.70;7.10;;;20.60;99.90;;;;;;10548938;28;20212;-80
2021/06/27 05:43:21;;;;;;;8.07;7.37;;;20.70;99.90;;;;;;10523484;28;20234;-81
2021/06/27 05:48:23;;;;;;;8.00;7.40;;;20.80;99.90;;;;;;10545816;28;20192;-80
2021/06/27 05:53:25;;;;;;;8.00;7.40;;;20.80;99.90;;;;;;10526662;28;20216;-80
2021/06/27 05:58:28;;;;;;;7.53;6.93;;;21.00;99.90;;;;;;10545576;28;20645;-81
2021/06/27 06:03:30;;;;;;;7.77;7.17;;;21.10;99.90;;;;;;10545909;28;20223;-79
2021/06/27 06:08:33;;;;;;;7.63;7.03;;;21.20;99.90;;;;;;10525725;28;20203;-80
2021/06/27 06:13:37;;;;;;;7.70;7.10;;;21.30;99.90;;;;;;10544807;28;20228;-80
2021/06/27 06:18:42;;;;;;;7.10;6.50;;;21.40;99.90;;;;;;10546133;28;20200;-81
2021/06/27 06:23:44;;;;;;;7.30;6.70;;;21.40;99.90;;;;;;10546618;28;20721;-80
2021/06/27 06:28:48;;;;;;;14.87;7.20;;;21.50;99.90;;;;;;10545588;28;20242;-81
2021/06/27 06:33:50;;;;;;;7.20;6.70;;;21.70;99.90;;;;;;10527362;28;20215;-81
2021/06/27 06:38:52;;;;;;;8.30;7.50;;;21.70;99.90;;;;;;10545633;28;20235;-80
2021/06/27 06:43:56;;;;;;;7.80;7.20;;;21.70;99.90;;;;;;10524031;28;20234;-81
2021/06/27 06:48:58;;;;;;;9.43;8.60;;;21.90;99.90;;;;;;10526840;28;20206;-81
2021/06/27 06:54:00;;;;;;;9.20;8.10;;;22.20;99.90;;;;;;10527965;28;20220;-81
2021/06/27 06:59:04;;;;;;;8.93;8.13;;;22.50;99.90;;;;;;10527456;28;20210;-81
2021/06/27 07:04:06;;;;;;;9.20;8.50;;;22.80;99.90;;;;;;10556122;28;20227;-79
2021/06/27 07:09:08;;;;;;;8.00;7.40;;;23.00;99.90;;;;;;10546566;28;20254;-80
2021/06/27 07:14:11;;;;;;;9.17;8.47;;;23.20;99.90;;;;;;10518924;28;20231;-81
2021/06/27 07:19:13;;;;;;;8.33;7.57;;;23.30;99.90;;;;;;10543098;28;20227;-80
2021/06/27 07:24:15;;;;;;;8.10;7.37;;;23.50;99.90;;;;;;10542294;28;20299;-81
2021/06/27 07:29:19;;;;;;;8.10;7.30;;;23.90;99.90;;;;;;10543465;28;20683;-80
2021/06/27 07:34:21;;;;;;;6.40;5.90;;;24.50;99.90;;;;;;10545613;28;20676;-81
2021/06/27 07:39:23;;;;;;;7.03;6.33;;;25.10;99.90;;;;;;10546554;28;20204;-80
2021/06/27 07:44:27;;;;;;;8.13;7.53;;;25.90;99.90;;;;;;10541925;28;20329;-80
2021/06/27 07:49:29;;;;;;;5.93;5.53;;;26.00;99.90;;;;;;10544441;28;20294;-80
2021/06/27 07:54:31;;;;;;;6.10;5.60;;;26.20;99.90;;;;;;10520609;28;20216;-80
2021/06/27 07:59:35;;;;;;;5.50;5.10;;;26.80;99.30;;;;;;10524685;28;20294;-80
2021/06/27 08:04:37;;;;;;;4.90;4.60;;;27.20;97.10;;;;;;10543886;28;20247;-81
2021/06/27 08:09:39;;;;;;;5.93;5.50;;;27.80;94.40;;;;;;10543626;28;20238;-81
2021/06/27 08:14:42;;;;;;;4.40;4.10;;;28.30;94.90;;;;;;10538940;28;20269;-81
2021/06/27 08:19:46;;;;;;;4.50;4.20;;;28.70;92.30;;;;;;10526376;28;20235;-81
2021/06/27 08:24:48;;;;;;;4.50;4.20;;;29.10;89.70;;;;;;10544392;28;20216;-81
2021/06/27 08:29:52;;;;;;;4.87;4.57;;;29.40;87.80;;;;;;10526286;28;20219;-81
2021/06/27 08:34:54;;;;;;;4.33;4.03;;;29.80;83.80;;;;;;10544733;28;20230;-81
2021/06/27 08:39:56;;;;;;;4.33;4.03;;;30.20;84.10;;;;;;10526539;28;20630;-80
2021/06/27 08:45:00;;;;;;;4.03;3.83;;;30.50;81.40;;;;;;10544656;28;20220;-81
2021/06/27 08:50:03;;;;;;;3.80;3.60;;;30.80;76.50;;;;;;10543984;28;20290;-81
2021/06/27 08:55:07;;;;;;;3.90;3.53;;;31.00;74.80;;;;;;10547386;28;20227;-79
2021/06/27 09:00:12;;;;;;;4.20;3.90;;;31.10;70.60;;;;;;10532343;28;20208;-81
2021/06/27 09:05:14;;;;;;;4.17;3.87;;;31.30;72.20;;;;;;10522715;28;20222;-81
2021/06/27 09:10:25;;;;;;;3.83;3.60;;;31.60;71.00;;;;;;10543717;28;20222;-81
2021/06/27 09:15:38;;;;;;;3.53;3.33;;;32.00;69.80;;;;;;10537585;28;20228;-80
2021/06/27 09:20:42;;;;;;;3.60;3.40;;;32.30;64.90;;;;;;10541182;28;20254;-81
2021/06/27 09:25:45;;;;;;;3.50;3.30;;;32.20;64.60;;;;;;10539690;28;20233;-80
2021/06/27 09:30:50;;;;;;;3.23;3.03;;;32.50;62.50;;;;;;10536594;28;20762;-81
2021/06/27 09:35:55;;;;;;;3.20;3.00;;;32.80;62.20;;;;;;10522948;28;20219;-80
2021/06/27 09:40:59;;;;;;;3.50;3.30;;;33.50;59.60;;;;;;10537406;28;20206;-82
2021/06/27 09:46:11;;;;;;;3.07;2.97;;;34.30;57.90;;;;;;10537247;28;20736;-80
2021/06/27 09:51:15;;;;;;;3.60;3.40;;;35.40;57.00;;;;;;10510753;28;20207;-81
2021/06/27 09:56:18;;;;;;;3.22;3.13;;;36.70;51.70;;;;;;10550571;28;20703;-82
2021/06/27 10:01:25;;;;;;;3.22;3.05;;;38.00;50.70;;;;;;10550237;28;20198;-81
2021/06/27 10:06:29;;;;;;;3.30;3.10;;;39.40;47.90;;;;;;10549896;28;20241;-82
2021/06/27 10:11:31;;;;;;;2.90;2.80;;;40.10;45.10;;;;;;10549604;28;20294;-82
2021/06/27 10:16:35;;;;;;;2.85;2.75;;;40.30;45.00;;;;;;10548994;28;20281;-82
2021/06/27 10:21:37;;;;;;;3.05;2.95;;;40.70;44.30;;;;;;10514641;28;20207;-82
2021/06/27 10:26:40;;;;;;;3.20;3.10;;;40.90;42.50;;;;;;10549293;28;20211;-81
2021/06/27 10:31:44;;;;;;;3.30;3.10;;;39.40;43.30;;;;;;10549588;28;20263;-81
2021/06/27 10:36:50;;;;;;;3.17;2.97;;;37.30;43.50;;;;;;10548238;28;20234;-81
2021/06/27 10:42:01;;;;;;;3.10;2.90;;;35.70;46.30;;;;;;10537342;28;20196;-81
2021/06/27 10:47:05;;;;;;;3.10;2.80;;;34.60;49.40;;;;;;10527979;28;20192;-79
2021/06/27 10:52:08;;;;;;;2.90;2.80;;;33.80;46.90;;;;;;10515400;28;20730;-81
2021/06/27 10:57:11;;;;;;;3.00;2.90;;;33.00;50.30;;;;;;10506595;28;20721;-80
2021/06/27 11:02:17;;;;;;;3.10;3.00;;;32.30;50.70;;;;;;10529171;28;20199;-81
2021/06/27 11:07:49;;;;;;;3.43;3.23;;;31.70;50.60;;;;;;10494644;28;20205;-81
2021/06/27 11:18:51;;;;;;;3.03;2.93;;;30.50;53.30;;;;;;10552553;28;20234;-82
2021/06/27 11:24:42;;;;;;;3.40;3.20;;;30.00;56.10;;;;;;10572938;28;20224;-82
2021/06/27 11:29:48;;;;;;;3.63;3.37;;;29.60;56.50;;;;;;10553398;28;20222;-82
2021/06/27 11:34:56;;;;;;;3.20;3.00;;;29.20;57.30;;;;;;10549712;28;20211;-82
2021/06/27 11:40:02;;;;;;;3.30;3.10;;;28.90;59.80;;;;;;10568601;28;20732;-80
2021/06/27 11:45:37;;;;;;;4.20;3.27;;;28.70;58.70;;;;;;10548350;28;20235;-80
2021/06/27 11:50:47;;;;;;;3.53;3.33;;;28.60;57.40;;;;;;10581013;28;20198;-81
2021/06/27 11:56:04;;;;;;;2.80;2.70;;;28.50;57.60;;;;;;10550224;28;20238;-81
2021/06/27 12:01:08;;;;;;;3.70;3.50;;;28.40;58.40;;;;;;10540528;28;20191;-82
2021/06/27 12:06:13;;;;;;;3.00;2.90;;;28.30;58.90;;;;;;10522800;28;20338;-82
2021/06/27 12:11:15;;;;;;;3.00;2.90;;;28.20;58.10;;;;;;10554181;28;20200;-81
2021/06/27 12:16:17;;;;;;;3.50;3.30;;;28.20;57.20;;;;;;10536382;28;20231;-80
2021/06/27 12:21:22;;;;;;;3.27;3.07;;;28.10;57.80;;;;;;10542528;28;20298;-81
2021/06/27 12:26:24;;;;;;;3.40;3.20;;;28.00;56.70;;;;;;10541579;28;20302;-81
2021/06/27 12:31:28;;;;;;;2.80;2.70;;;28.00;55.60;;;;;;10549830;28;20290;-81
2021/06/27 12:36:34;;;;;;;3.07;2.97;;;28.00;56.30;;;;;;10513910;28;20714;-82
2021/06/27 12:41:40;;;;;;;3.07;2.87;;;27.90;57.60;;;;;;10562262;28;20908;-81
2021/06/27 12:46:44;;;;;;;2.37;2.27;;;28.00;57.20;;;;;;10555466;28;20229;-81
2021/06/27 12:51:50;;;;;;;2.80;2.63;;;28.00;57.90;;;;;;10544554;28;20195;-81
2021/06/27 12:56:56;;;;;;;3.27;3.10;;;28.10;58.20;;;;;;10533402;28;20227;-82
2021/06/27 13:02:08;;;;;;;3.40;3.20;;;28.00;58.90;;;;;;10555406;28;20234;-80
2021/06/27 13:07:13;;;;;;;2.90;2.70;;;27.90;61.20;;;;;;10535205;28;20231;-81
2021/06/27 13:12:20;;;;;;;3.10;2.90;;;27.80;57.60;;;;;;10559817;28;20666;-80
2021/06/27 13:17:23;;;;;;;2.90;2.80;;;27.80;59.00;;;;;;10561463;28;20231;-80
2021/06/27 13:22:26;;;;;;;3.13;2.83;;;27.80;59.50;;;;;;10568932;28;20286;-82
2021/06/27 13:27:29;;;;;;;2.73;2.53;;;27.80;56.30;;;;;;10569923;28;20703;-82
2021/06/27 13:32:31;;;;;;;3.63;3.40;;;27.90;56.80;;;;;;10567231;28;20245;-81
2021/06/27 13:37:54;;;;;;;2.93;2.83;;;28.00;55.80;;;;;;10528399;28;20301;-80
2021/06/27 13:42:58;;;;;;;2.50;2.40;;;28.10;56.50;;;;;;10557742;28;20213;-80
2021/06/27 13:48:00;;;;;;;2.80;2.70;;;28.00;57.70;;;;;;10583568;28;20191;-81
2021/06/27 13:53:04;;;;;;;2.57;2.47;;;27.90;57.70;;;;;;10575949;28;20195;-80
2021/06/27 13:58:06;;;;;;;2.73;2.63;;;27.80;57.40;;;;;;10547522;28;20230;-81
2021/06/27 14:03:08;;;;;;;6.27;3.13;;;27.80;58.30;;;;;;10565784;28;20223;-81
2021/06/27 14:08:12;;;;;;;2.80;2.60;;;27.80;56.20;;;;;;10555097;28;20589;-81
2021/06/27 14:13:21;;;;;;;2.70;2.50;;;28.00;58.90;;;;;;10545786;28;20284;-80
2021/06/27 14:18:23;;;;;;;2.50;2.40;;;28.10;56.30;;;;;;10562530;28;20262;-79
2021/06/27 14:23:27;;;;;;;4.13;3.10;;;28.20;56.70;;;;;;10547762;28;20224;-81
2021/06/27 14:28:30;;;;;;;2.50;2.40;;;28.20;58.60;;;;;;10589590;28;20608;-80
2021/06/27 14:33:34;;;;;;;3.10;2.90;;;28.20;57.90;;;;;;10586669;28;20307;-80
2021/06/27 14:38:38;;;;;;;2.63;2.43;;;28.10;59.80;;;;;;10587266;28;20229;-80
2021/06/27 14:43:40;;;;;;;2.73;2.63;;;27.90;59.10;;;;;;10550776;28;20238;-81
2021/06/27 14:48:42;;;;;;;3.10;2.90;;;27.80;59.50;;;;;;10564242;28;20191;-80
2021/06/27 14:53:46;;;;;;;3.20;3.00;;;27.80;63.40;;;;;;10564930;28;20251;-80
2021/06/27 14:58:48;;;;;;;3.00;2.90;;;27.70;60.40;;;;;;10582284;28;20215;-80
2021/06/27 15:03:50;;;;;;;2.90;2.80;;;27.70;62.90;;;;;;10584766;28;20227;-80
2021/06/27 15:08:54;;;;;;;3.33;3.17;;;27.70;59.70;;;;;;10583393;28;20237;-80
2021/06/27 15:13:56;;;;;;;3.30;3.03;;;27.80;58.60;;;;;;10565388;28;20767;-80
2021/06/27 15:18:58;;;;;;;3.23;3.07;;;27.90;63.00;;;;;;10584857;28;20226;-80
2021/06/27 15:24:08;;;;;;;3.30;3.10;;;28.10;65.10;;;;;;10559279;28;20278;-82
2021/06/27 15:29:13;;;;;;;2.83;2.67;;;28.00;61.10;;;;;;10575405;28;20201;-82
2021/06/27 15:34:15;;;;;;;2.77;2.60;;;28.00;62.60;;;;;;10553635;28;20246;-83
2021/06/27 15:39:20;;;;;;;3.20;3.00;;;27.90;68.50;;;;;;10527927;28;20251;-84
2021/06/27 15:44:22;;;;;;;3.37;3.17;;;27.80;69.90;;;;;;10516511;28;20691;-84
2021/06/27 15:49:24;;;;;;;3.60;3.40;;;27.80;71.70;;;;;;10568851;28;20282;-82
2021/06/27 15:54:28;;;;;;;2.83;2.73;;;27.70;70.60;;;;;;10588681;28;20223;-85
2021/06/27 15:59:30;;;;;;;3.90;3.57;;;27.60;72.80;;;;;;10538312;28;20227;-81
2021/06/27 16:04:32;;;;;;;3.40;3.20;;;27.60;71.40;;;;;;10557063;28;20227;-82
2021/06/27 16:09:36;;;;;;;3.23;3.03;;;27.60;73.20;;;;;;10550462;28;20275;-84
2021/06/27 16:14:38;;;;;;;4.37;4.07;;;27.50;73.00;;;;;;10582251;28;20662;-84
2021/06/27 16:19:41;;;;;;;3.50;3.30;;;27.50;73.70;;;;;;10581343;28;20223;-82
2021/06/27 16:24:45;;;;;;;3.70;3.40;;;27.40;74.80;;;;;;10569129;28;20735;-83
2021/06/27 16:29:47;;;;;;;3.50;3.30;;;27.30;74.50;;;;;;10579616;28;20195;-83
2021/06/27 16:34:49;;;;;;;4.80;3.40;;;27.10;76.10;;;;;;10573225;28;20271;-83
2021/06/27 16:39:52;;;;;;;3.67;3.37;;;27.00;77.00;;;;;;10543108;28;20234;-82
2021/06/27 16:44:55;;;;;;;3.70;3.50;;;26.80;77.40;;;;;;10576569;28;20627;-82
2021/06/27 16:50:00;;;;;;;3.93;3.63;;;26.70;79.20;;;;;;10567829;28;20209;-82
2021/06/27 16:55:04;;;;;;;4.07;3.70;;;26.60;78.60;;;;;;10578921;28;20218;-82
2021/06/27 17:00:09;;;;;;;3.93;3.63;;;26.50;81.20;;;;;;10596938;28;20280;-82
2021/06/27 17:05:11;;;;;;;4.10;2.97;;;26.50;80.60;;;;;;10590011;28;20276;-83
2021/06/27 17:10:16;;;;;;;4.73;4.00;;;26.50;78.70;;;;;;10582985;28;20195;-83
2021/06/27 17:15:19;;;;;;;3.27;3.07;;;26.40;80.50;;;;;;10569888;22;20311;-80
2021/06/27 17:20:21;;;;;;;3.37;3.17;;;26.30;79.50;;;;;;10468936;28;20221;-81
2021/06/27 17:25:25;;;;;;;3.57;3.37;;;26.20;80.60;;;;;;10527287;28;20215;-81
2021/06/27 17:30:27;;;;;;;4.33;3.27;;;26.20;79.40;;;;;;10515464;28;20199;-81
2021/06/27 17:35:30;;;;;;;3.90;3.50;;;26.20;80.40;;;;;;10536753;28;20228;-81
2021/06/27 17:40:34;;;;;;;3.50;3.30;;;26.20;81.80;;;;;;10516304;28;20227;-81
2021/06/27 17:45:37;;;;;;;3.33;3.13;;;26.10;81.70;;;;;;10517350;28;20610;-81
2021/06/27 17:50:39;;;;;;;3.93;3.30;;;26.00;80.80;;;;;;10534183;28;20230;-80
2021/06/27 17:55:43;;;;;;;4.83;3.40;;;26.00;81.00;;;;;;10535490;28;20622;-80
2021/06/27 18:00:46;;;;;;;3.90;3.60;;;26.00;79.80;;;;;;10552065;28;20233;-80
2021/06/27 18:05:48;;;;;;;3.53;3.23;;;25.90;82.00;;;;;;10531891;28;20224;-81
2021/06/27 18:10:51;;;;;;;3.87;3.53;;;25.80;82.20;;;;;;10545358;28;20196;-81
2021/06/27 18:15:53;;;;;;;4.07;3.77;;;25.80;82.90;;;;;;10546263;28;20589;-81
2021/06/27 18:20:56;;;;;;;3.93;3.37;;;25.70;82.40;;;;;;10527055;28;20243;-81
2021/06/27 18:26:00;;;;;;;3.60;3.40;;;25.60;82.20;;;;;;10529460;28;20251;-82
2021/06/27 18:31:03;;;;;;;3.70;3.50;;;25.60;83.30;;;;;;10507236;28;20204;-81
2021/06/27 18:36:06;;;;;;;4.87;4.07;;;25.50;83.30;;;;;;10526682;28;20223;-82
2021/06/27 18:41:10;;;;;;;4.00;3.80;;;25.40;84.70;;;;;;10531075;28;20225;-81
2021/06/27 18:46:12;;;;;;;4.23;4.03;;;25.30;84.80;;;;;;10511045;28;20251;-82
2021/06/27 18:51:15;;;;;;;4.27;3.87;;;25.20;85.70;;;;;;10529552;28;20204;-82
2021/06/27 18:56:18;;;;;;;5.60;4.33;;;25.10;85.70;;;;;;10524352;28;20215;-81
2021/06/27 19:01:23;;;;;;;4.30;4.00;;;25.00;86.30;;;;;;10526200;28;20208;-82
2021/06/27 19:06:25;;;;;;;4.80;4.40;;;24.80;86.20;;;;;;10525197;28;20319;-82
2021/06/27 19:11:28;;;;;;;4.57;4.27;;;24.80;86.20;;;;;;10526364;28;20246;-81
2021/06/27 19:16:31;;;;;;;5.07;4.63;;;24.70;85.00;;;;;;10543656;28;20252;-82
2021/06/27 19:21:34;;;;;;;4.50;4.10;;;24.60;85.30;;;;;;10525347;28;20614;-82
2021/06/27 19:26:37;;;;;;;4.63;4.30;;;24.60;84.40;;;;;;10537835;28;20228;-81
2021/06/27 19:31:39;;;;;;;6.23;4.37;;;24.50;84.90;;;;;;10524816;28;20202;-81
2021/06/27 19:36:42;;;;;;;3.97;3.70;;;24.40;85.00;;;;;;10540157;28;20575;-81
2021/06/27 19:41:45;;;;;;;4.10;3.80;;;24.40;85.70;;;;;;10523776;28;20211;-81
2021/06/27 19:46:47;;;;;;;4.00;3.60;;;24.40;85.30;;;;;;10542921;28;20212;-80
2021/06/27 19:51:50;;;;;;;4.80;3.93;;;24.40;85.80;;;;;;10507100;28;20227;-80
2021/06/27 19:56:54;;;;;;;5.50;4.07;;;24.30;86.60;;;;;;10543921;28;20219;-80
2021/06/27 20:01:56;;;;;;;3.77;3.57;;;24.30;85.40;;;;;;10525923;28;20794;-80
2021/06/27 20:06:58;;;;;;;3.33;3.03;;;24.30;85.20;;;;;;10525673;28;20273;-80
2021/06/27 20:12:07;;;;;;;4.10;3.70;;;24.30;86.60;;;;;;10542042;28;20227;-80
2021/06/27 20:17:10;;;;;;;6.07;4.70;;;24.30;87.30;;;;;;10507951;28;20232;-81
2021/06/27 20:22:12;;;;;;;4.47;4.17;;;24.20;88.50;;;;;;10526584;28;20230;-80
2021/06/27 20:27:15;;;;;;;4.30;3.90;;;24.20;90.30;;;;;;10537856;28;20303;-80
2021/06/27 20:32:18;;;;;;;4.20;3.90;;;24.20;90.00;;;;;;10543365;28;20215;-81
2021/06/27 20:37:20;;;;;;;4.87;4.57;;;24.10;90.60;;;;;;10525224;28;20242;-80
2021/06/27 20:42:24;;;;;;;4.23;4.00;;;24.00;90.60;;;;;;10525561;28;20208;-80
2021/06/27 20:47:26;;;;;;;4.50;4.03;;;24.00;90.80;;;;;;10524784;28;20212;-81
2021/06/27 20:52:28;;;;;;;4.77;4.37;;;23.90;90.40;;;;;;10525115;28;20214;-80
2021/06/27 20:57:32;;;;;;;3.90;3.67;;;23.80;90.90;;;;;;10542175;28;20262;-81
2021/06/27 21:02:34;;;;;;;3.73;3.53;;;23.70;91.50;;;;;;10524963;28;20683;-81
2021/06/27 21:07:36;;;;;;;4.70;4.40;;;23.70;91.90;;;;;;10542077;28;20219;-81
2021/06/27 21:12:40;;;;;;;4.60;4.30;;;23.70;92.10;;;;;;10524267;28;20223;-80
2021/06/27 21:17:42;;;;;;;4.60;4.30;;;23.60;92.60;;;;;;10542785;28;20652;-82
2021/06/27 21:22:44;;;;;;;5.20;4.40;;;23.50;92.60;;;;;;10542287;28;20235;-81
2021/06/27 21:27:48;;;;;;;4.40;4.00;;;23.50;92.90;;;;;;10541960;28;20222;-81
2021/06/27 21:32:50;;;;;;;4.50;4.10;;;23.50;92.90;;;;;;10541825;28;20213;-81
2021/06/27 21:37:53;;;;;;;4.30;4.10;;;23.50;93.00;;;;;;10539934;28;20247;-82
2021/06/27 21:42:57;;;;;;;4.67;4.37;;;23.40;93.30;;;;;;10520440;28;20574;-81
2021/06/27 21:47:59;;;;;;;4.70;4.30;;;23.40;93.60;;;;;;10531127;28;20737;-82
2021/06/27 21:53:01;;;;;;;6.37;5.30;;;23.30;93.90;;;;;;10514735;28;20211;-82
2021/06/27 21:58:05;;;;;;;4.60;4.30;;;23.30;94.40;;;;;;10529095;28;20221;-82
2021/06/27 22:03:07;;;;;;;5.83;4.90;;;23.30;94.20;;;;;;10542809;28;20433;-81
2021/06/27 22:08:09;;;;;;;4.73;4.43;;;23.20;94.40;;;;;;10547954;28;20278;-81
2021/06/27 22:13:12;;;;;;;5.50;5.00;;;23.10;94.70;;;;;;10549601;28;20199;-80
2021/06/27 22:18:14;;;;;;;5.17;4.80;;;23.10;94.90;;;;;;10549596;28;20211;-82
2021/06/27 22:23:17;;;;;;;4.60;4.30;;;23.10;95.20;;;;;;10533991;28;20578;-81
2021/06/27 22:28:20;;;;;;;5.20;4.73;;;23.10;95.50;;;;;;10530575;28;20275;-81
2021/06/27 22:33:23;;;;;;;4.87;4.57;;;23.10;95.60;;;;;;10514126;28;20262;-80
2021/06/27 22:38:25;;;;;;;4.93;4.63;;;23.10;95.80;;;;;;10513866;28;20319;-80
2021/06/27 22:43:28;;;;;;;5.57;5.03;;;23.10;95.90;;;;;;10530269;28;20255;-81
2021/06/27 22:48:30;;;;;;;4.87;4.47;;;23.20;96.00;;;;;;10529926;28;20191;-82
2021/06/27 22:53:33;;;;;;;4.87;4.50;;;23.20;96.50;;;;;;10547764;28;20232;-81
2021/06/27 22:58:36;;;;;;;5.17;4.77;;;23.20;96.60;;;;;;10529647;28;20280;-81
2021/06/27 23:03:38;;;;;;;4.50;4.20;;;23.30;95.80;;;;;;10548659;28;20307;-81
2021/06/27 23:08:40;;;;;;;4.00;3.80;;;23.30;94.00;;;;;;10540522;28;20519;-81
2021/06/27 23:20:35;;;;;;;2.90;2.70;;;23.50;92.60;;;;;;10534823;28;20268;-82
2021/06/27 23:25:37;;;;;;;3.00;2.90;;;23.50;91.70;;;;;;10505476;28;20303;-83
2021/06/27 23:30:39;;;;;;;2.43;2.33;;;23.60;89.70;;;;;;10500544;28;20205;-83
2021/06/27 23:35:43;;;;;;;2.80;2.70;;;23.50;91.10;;;;;;10499563;28;20259;-83
2021/06/27 23:40:48;;;;;;;2.97;2.87;;;23.00;94.20;;;;;;10496405;28;20284;-81
2021/06/27 23:45:52;;;;;;;2.97;2.83;;;22.40;96.40;;;;;;10491845;28;20216;-81
2021/06/27 23:50:57;;;;;;;3.10;2.90;;;22.00;98.40;;;;;;10479407;28;20236;-82
2021/06/27 23:56:06;;;;;;;4.80;4.40;;;21.80;99.30;;;;;;10487155;28;20223;-82
